Time;durP1;ratioP1;P1;durP2;ratioP2;P2;SDS_P1;SDS_P2;PMS_P1;PMS_P2;Temp;Humidity;BMP_temperature;BMP_pressure;BME280_temperature;BME280_humidity;BME280_pressure;Samples;Min_cycle;Max_cycle;Signal;HPM_P1;HPM_P2
2022/02/08 00:02:02;;;;;;;6.15;1.50;;;;;;;20.45;43.04;101783.72;5038273;28;20056;-73
2022/02/08 00:04:30;;;;;;;5.78;1.98;;;;;;;20.53;42.64;101779.97;5036759;28;20032;-73
2022/02/08 00:06:57;;;;;;;5.18;1.77;;;;;;;20.77;42.21;101777.03;5033778;28;20037;-72
2022/02/08 00:09:24;;;;;;;8.82;1.88;;;;;;;20.87;42.15;101784.06;5034416;28;20492;-73
2022/02/08 00:11:50;;;;;;;6.78;2.08;;;;;;;20.86;42.18;101776.09;5034923;28;20029;-73
2022/02/08 00:14:15;;;;;;;6.20;1.70;;;;;;;20.83;42.32;101772.03;5035925;28;20083;-73
2022/02/08 00:16:41;;;;;;;7.22;2.13;;;;;;;20.66;42.57;101775.97;5036354;28;20029;-80
2022/02/08 00:19:07;;;;;;;5.40;1.52;;;;;;;20.81;42.49;101766.03;5036888;28;20051;-73
2022/02/08 00:21:33;;;;;;;3.60;1.42;;;;;;;20.86;42.29;101776.09;5036108;28;20025;-73
2022/02/08 00:23:58;;;;;;;3.78;1.40;;;;;;;20.69;42.71;101777.22;5037072;28;20053;-73
2022/02/08 00:26:24;;;;;;;4.22;1.60;;;;;;;20.80;42.59;101781.09;5033182;28;20730;-73
2022/02/08 00:28:50;;;;;;;5.50;1.30;;;;;;;20.89;42.29;101772.59;5034658;28;20029;-85
2022/02/08 00:31:17;;;;;;;10.85;2.00;;;;;;;20.73;42.99;101783.69;5033352;28;20041;-73
2022/02/08 00:33:42;;;;;;;6.35;1.83;;;;;;;20.98;42.47;101778.75;5038787;28;20434;-72
2022/02/08 00:36:08;;;;;;;5.85;1.40;;;;;;;20.42;43.88;101792.75;5033081;28;20033;-71
2022/02/08 00:38:35;;;;;;;6.07;1.63;;;;;;;20.92;42.92;101782.97;5035560;28;20037;-72
2022/02/08 00:41:02;;;;;;;8.13;1.73;;;;;;;20.98;42.75;101779.56;5037516;28;20029;-72
2022/02/08 00:43:34;;;;;;;5.68;1.77;;;;;;;20.82;43.11;101772.41;5035405;28;20111;-72
2022/02/08 00:46:14;;;;;;;5.35;1.20;;;;;;;20.74;43.45;101782.53;5034203;28;20519;-72
2022/02/08 00:48:43;;;;;;;3.95;1.30;;;;;;;20.94;43.14;101777.88;5036754;28;20021;-72
2022/02/08 00:51:10;;;;;;;6.05;1.30;;;;;;;20.54;44.05;101792.69;5034194;28;20021;-73
2022/02/08 00:53:36;;;;;;;4.18;1.67;;;;;;;20.93;43.15;101784.56;5035017;28;20029;-72
2022/02/08 00:56:03;;;;;;;5.10;1.50;;;;;;;20.90;43.27;101791.66;5033963;28;20476;-72
2022/02/08 00:58:28;;;;;;;2.97;1.20;;;;;;;20.98;43.30;101785.13;5035369;28;20174;-72
2022/02/08 01:00:54;;;;;;;4.70;1.40;;;;;;;20.82;43.64;101772.41;5036434;28;20030;-73
2022/02/08 01:03:20;;;;;;;3.67;1.50;;;;;;;20.72;43.75;101777.34;5034922;28;20029;-73
2022/02/08 01:05:50;;;;;;;6.30;1.45;;;;;;;20.85;43.63;101777.22;5034503;28;20391;-73
2022/02/08 01:08:16;;;;;;;4.57;1.60;;;;;;;21.08;42.99;101782.97;5036724;28;20025;-73
2022/02/08 01:10:42;;;;;;;7.05;2.00;;;;;;;20.75;44.03;101781.34;5033063;28;20529;-73
2022/02/08 01:13:09;;;;;;;6.38;1.55;;;;;;;20.85;43.71;101774.44;5034940;28;20029;-73
2022/02/08 01:15:37;;;;;;;4.47;1.75;;;;;;;21.03;43.33;101778.50;5034812;28;20025;-73
2022/02/08 01:18:04;;;;;;;7.43;1.83;;;;;;;21.14;43.17;101773.19;5035923;28;20104;-72
2022/02/08 01:20:37;;;;;;;5.55;1.38;;;;;;;21.09;43.41;101770.72;5033722;28;20036;-73
2022/02/08 01:23:07;;;;;;;5.82;2.00;;;;;;;21.10;43.42;101775.91;5038013;28;20025;-73
2022/02/08 01:25:40;;;;;;;5.50;2.13;;;;;;;20.97;43.59;101777.16;5034046;28;20036;-73
2022/02/08 01:28:35;;;;;;;5.20;1.70;;;;;;;21.16;42.96;101779.19;5033611;28;20054;-73
2022/02/08 01:31:02;;;;;;;5.50;2.42;;;;;;;21.09;43.44;101770.72;5034217;28;20033;-73
2022/02/08 01:38:54;;;;;;;4.25;1.70;;;;;;;21.10;43.33;101763.97;5033989;28;20047;-73
2022/02/08 01:41:39;;;;;;;5.82;1.77;;;;;;;21.01;43.72;101767.75;5037727;28;20060;-73
2022/02/08 01:44:28;;;;;;;7.72;2.42;;;;;;;20.87;44.14;101767.41;5034130;28;20028;-73
2022/02/08 01:47:05;;;;;;;4.18;1.27;;;;;;;21.06;43.56;101770.25;5036070;28;20029;-73
2022/02/08 01:49:35;;;;;;;6.18;1.48;;;;;;;21.13;43.51;101768.81;5035704;28;20060;-72
2022/02/08 01:52:01;;;;;;;6.35;2.25;;;;;;;21.01;43.94;101755.84;5035286;28;20026;-73
2022/02/08 01:54:27;;;;;;;2.42;1.27;;;;;;;20.77;44.60;101773.47;5033946;28;20031;-72
2022/02/08 01:56:53;;;;;;;4.75;1.42;;;;;;;20.98;43.98;101779.56;5038411;28;20033;-72
2022/02/08 01:59:20;;;;;;;2.17;0.95;;;;;;;20.92;44.27;101772.66;5033399;28;20021;-73
2022/02/08 02:01:46;;;;;;;3.33;1.17;;;;;;;20.96;44.31;101775.53;5034176;28;20368;-73
2022/02/08 02:04:12;;;;;;;3.65;1.48;;;;;;;20.73;44.93;101792.03;5036205;28;20025;-73
2022/02/08 02:06:38;;;;;;;2.67;1.23;;;;;;;20.90;44.58;101779.75;5030361;28;20010;-73
2022/02/08 02:09:05;;;;;;;7.63;1.20;;;;;;;21.05;44.20;101790.88;5031561;28;20032;-73
2022/02/08 02:11:30;;;;;;;2.65;1.15;;;;;;;21.06;44.09;101792.47;5034183;28;20028;-73
2022/02/08 02:13:57;;;;;;;2.00;1.10;;;;;;;21.07;44.17;101782.16;5038323;28;20017;-73
2022/02/08 02:16:35;;;;;;;5.65;1.30;;;;;;;21.05;44.23;101785.31;5037024;28;20104;-72
2022/02/08 02:19:02;;;;;;;5.30;1.15;;;;;;;21.02;44.50;101780.47;5034854;28;20029;-94
2022/02/08 02:21:29;;;;;;;2.72;0.80;;;;;;;20.77;45.11;101773.47;5036706;28;20128;-73
2022/02/08 02:23:55;;;;;;;2.60;0.90;;;;;;;20.90;44.73;101780.56;5037327;28;20116;-73
2022/02/08 02:26:21;;;;;;;2.95;1.20;;;;;;;20.93;44.82;101776.25;5038506;28;20079;-73
2022/02/08 02:28:47;;;;;;;4.68;1.58;;;;;;;20.96;44.83;101772.78;5037491;28;20472;-73
2022/02/08 02:31:12;;;;;;;4.22;1.15;;;;;;;20.87;45.05;101781.28;5042735;28;20040;-74
2022/02/08 02:33:38;;;;;;;2.47;0.90;;;;;;;20.81;45.12;101760.50;5043997;28;20469;-77
2022/02/08 02:36:06;;;;;;;3.88;1.05;;;;;;;20.86;45.13;101779.69;5039850;28;20029;-73
2022/02/08 02:38:32;;;;;;;2.88;1.13;;;;;;;20.86;45.25;101781.66;5038727;28;20392;-73
2022/02/08 02:40:58;;;;;;;1.60;0.70;;;;;;;21.08;44.69;101778.22;5037275;28;20025;-73
2022/02/08 02:43:27;;;;;;;1.38;0.70;;;;;;;21.20;44.43;101780.91;5037062;28;20032;-73
2022/02/08 02:45:52;;;;;;;1.83;0.83;;;;;;;21.21;44.34;101768.63;5034959;28;20061;-73
2022/02/08 02:48:18;;;;;;;1.27;0.50;;;;;;;21.12;44.58;101778.31;5037734;28;20270;-73
2022/02/08 02:50:50;;;;;;;5.38;0.93;;;;;;;20.93;45.13;101777.06;5036857;28;20364;-73
2022/02/08 02:53:16;;;;;;;3.42;0.70;;;;;;;20.96;45.01;101786.66;5036584;28;20033;-72
2022/02/08 02:55:42;;;;;;;1.88;0.70;;;;;;;20.84;45.44;101784.75;5035729;28;20040;-73
2022/02/08 02:58:08;;;;;;;2.92;1.00;;;;;;;20.91;45.45;101778.59;5037569;28;20424;-73
2022/02/08 03:00:47;;;;;;;4.43;1.30;;;;;;;20.80;45.63;101789.44;5036059;28;20102;-73
2022/02/08 03:03:28;;;;;;;5.68;0.95;;;;;;;21.00;45.14;101788.34;5039705;28;20075;-73
2022/02/08 03:19:27;;;;;;;4.50;1.17;;;;;;;20.99;45.21;101797.03;5037741;28;20029;-73
2022/02/08 03:21:53;;;;;;;3.08;0.80;;;;;;;20.82;45.66;101794.63;5035599;28;20033;-73
2022/02/08 03:24:19;;;;;;;3.65;0.80;;;;;;;21.01;45.06;101791.97;5038458;28;20025;-73
2022/02/08 03:26:44;;;;;;;4.60;1.15;;;;;;;21.17;44.63;101797.50;5035912;28;20037;-73
2022/02/08 03:29:10;;;;;;;2.95;0.73;;;;;;;20.92;45.44;101794.88;5036976;28;20120;-73
2022/02/08 03:31:36;;;;;;;1.88;0.80;;;;;;;21.08;44.94;101788.53;5036484;28;20024;-72
2022/02/08 03:34:01;;;;;;;2.67;0.77;;;;;;;;;;5035217;28;20030;-73
2022/02/08 03:36:27;;;;;;;1.35;0.52;;;;;;;20.91;45.37;101786.91;5036857;28;20357;-73
2022/02/08 03:39:15;;;;;;;3.40;0.90;;;;;;;20.98;45.20;101801.78;5038051;28;20025;-72
2022/02/08 03:41:45;;;;;;;3.80;0.80;;;;;;;21.11;44.86;101791.41;5040042;28;20029;-72
2022/02/08 03:44:21;;;;;;;2.25;1.00;;;;;;;21.00;44.98;101791.13;5040591;28;20028;-72
2022/02/08 03:46:47;;;;;;;1.27;0.95;;;;;;;21.13;44.84;101785.47;5037878;28;20080;-73
2022/02/08 03:49:13;;;;;;;1.17;0.70;;;;;;;21.01;45.05;101789.97;5036305;28;20479;-73
2022/02/08 03:51:57;;;;;;;5.30;1.00;;;;;;;21.04;45.02;101792.03;5036820;28;20395;-72
2022/02/08 03:54:23;;;;;;;2.70;1.20;;;;;;;20.96;45.17;101783.88;5033674;28;20033;-76
2022/02/08 03:56:49;;;;;;;2.35;0.80;;;;;;;20.83;45.68;101779.56;5034781;28;20022;-72
2022/02/08 03:59:15;;;;;;;2.25;1.00;;;;;;;20.97;45.13;101780.75;5036540;28;20021;-73
2022/02/08 04:06:58;;;;;;;4.03;1.35;;;;;;;20.90;45.44;101775.00;5037749;28;20025;-73
2022/02/08 04:09:23;;;;;;;3.78;0.90;;;;;;;21.11;44.98;101777.50;5040329;28;20159;-73
2022/02/08 04:12:14;;;;;;;2.75;0.73;;;;;;;21.04;45.08;101783.69;5038951;28;20041;-73
2022/02/08 04:42:23;;;;;;;3.92;0.82;;;;;;;20.81;46.02;101791.03;5035314;28;20028;-73
2022/02/08 04:44:33;;;;;;;1.55;1.15;;;;;;;20.94;45.57;101794.56;5023073;28;20045;-73
2022/02/08 04:49:30;;;;;;;1.92;0.60;;;;;;;21.05;45.31;101790.06;5037748;28;20491;-82
2022/02/08 04:52:01;;;;;;;3.05;1.17;;;;;;;21.14;45.10;101789.88;5033996;28;20088;-72
2022/02/08 04:57:08;;;;;;;4.15;1.00;;;;;;;21.14;45.18;101784.31;5035499;28;20084;-73
2022/02/08 05:35:23;;;;;;;2.30;1.00;;;;;;;21.24;44.93;101803.25;5033043;28;20132;-75
2022/02/08 05:45:31;;;;;;;1.85;0.80;;;;;;;21.22;45.05;101811.09;5009271;28;20030;-79
2022/02/08 05:47:56;;;;;;;3.10;1.20;;;;;;;21.31;44.74;101808.97;5019009;28;20046;-72
2022/02/08 05:55:29;;;;;;;1.85;0.93;;;;;;;21.06;45.60;101814.69;5017312;28;20029;-72
2022/02/08 05:57:56;;;;;;;5.63;1.08;;;;;;;21.14;45.42;101806.53;5009268;28;20023;-73
2022/02/08 06:00:26;;;;;;;4.43;1.00;;;;;;;21.16;45.15;101813.38;5023335;28;20025;-72
2022/02/08 06:02:58;;;;;;;4.20;0.98;;;;;;;21.04;45.58;101825.38;5022984;28;20010;-71
2022/02/08 06:05:24;;;;;;;6.25;1.40;;;;;;;21.14;45.32;101826.00;5021869;28;20113;-73
2022/02/08 06:07:50;;;;;;;2.10;0.80;;;;;;;21.17;45.25;101805.84;5024478;28;20021;-72
2022/02/08 06:10:16;;;;;;;2.90;0.93;;;;;;;21.08;45.55;101810.75;5021754;28;20472;-73
2022/02/08 06:12:52;;;;;;;2.55;0.80;;;;;;;21.05;45.73;101818.66;5021302;28;20029;-72
2022/02/08 06:15:20;;;;;;;4.10;1.00;;;;;;;21.02;45.79;101827.72;5019622;28;20052;-77
2022/02/08 06:17:46;;;;;;;3.40;1.27;;;;;;;21.05;45.57;101817.84;5022220;28;20029;-72
2022/02/08 06:20:12;;;;;;;3.03;1.00;;;;;;;21.04;45.65;101824.56;5019096;28;20495;-72
2022/02/08 06:22:40;;;;;;;2.15;0.70;;;;;;;21.15;45.59;101816.50;5020711;28;20053;-72
2022/02/08 06:25:09;;;;;;;3.90;1.13;;;;;;;21.14;45.45;101821.25;5021971;28;20026;-73
2022/02/08 06:27:35;;;;;;;4.97;0.90;;;;;;;21.15;45.47;101819.28;5020468;28;20050;-92
2022/02/08 06:30:01;;;;;;;5.43;0.98;;;;;;;21.13;45.46;101824.38;5025232;28;20083;-72
2022/02/08 06:32:28;;;;;;;11.45;1.85;;;;;;;20.94;46.37;101831.47;5020245;28;20025;-72
2022/02/08 06:34:57;;;;;;;2.95;0.80;;;;;;;21.00;45.84;101838.34;5023153;28;20522;-74
2022/02/08 06:37:24;;;;;;;4.65;1.40;;;;;;;21.02;45.81;101838.03;5020511;28;20033;-73
2022/02/08 06:39:50;;;;;;;2.92;0.65;;;;;;;20.69;46.95;101855.78;5020576;28;20112;-73
2022/02/08 06:42:18;;;;;;;7.10;0.98;;;;;;;20.73;46.86;101855.91;5026386;28;20085;-85
2022/02/08 06:44:44;;;;;;;5.05;1.13;;;;;;;20.99;46.14;101864.53;5023963;28;20029;-78
2022/02/08 06:47:12;;;;;;;6.95;1.98;;;;;;;21.06;45.95;101856.38;5023875;28;20033;-73
2022/02/08 06:49:38;;;;;;;14.02;2.67;;;;;;;21.17;45.72;101859.44;5023304;28;20053;-92
2022/02/08 06:52:04;;;;;;;1.30;0.70;;;;;;;21.17;45.67;101859.44;5021558;28;20112;-71
2022/02/08 06:54:30;;;;;;;6.93;1.75;;;;;;;21.18;45.80;101861.06;5036497;28;20531;-71
2022/02/08 06:56:55;;;;;;;3.85;1.05;;;;;;;21.13;45.91;101861.31;5013111;28;20492;-71
2022/02/08 06:59:21;;;;;;;13.10;1.75;;;;;;;21.01;46.10;101865.00;5012861;28;20384;-94
2022/02/08 07:01:47;;;;;;;1.35;0.70;;;;;;;20.99;46.11;101858.97;5012480;28;20477;-93
2022/02/08 07:04:15;;;;;;;5.50;2.33;;;;;;;20.98;46.07;101868.47;5015351;28;20030;-95
2022/02/08 07:06:42;;;;;;;7.28;2.70;;;;;;;20.65;46.88;101868.78;5012208;28;20034;-73
2022/02/08 07:09:08;;;;;;;5.78;1.60;;;;;;;20.42;47.42;101874.06;5021787;28;20026;-84
2022/02/08 07:11:33;;;;;;;6.30;2.10;;;;;;;20.46;47.08;101869.44;5014838;28;20034;-71
2022/02/08 07:14:00;;;;;;;6.80;1.38;;;;;;;20.44;47.12;101871.75;5016464;28;20040;-93
2022/02/08 07:16:25;;;;;;;6.80;1.42;;;;;;;20.40;47.15;101879.16;5017229;28;20025;-94
2022/02/08 07:18:51;;;;;;;4.00;1.08;;;;;;;20.43;47.07;101875.66;5016363;28;20384;-84
2022/02/08 07:21:16;;;;;;;8.35;1.80;;;;;;;20.15;47.83;101878.41;5017437;28;20041;-71
2022/02/08 07:23:42;;;;;;;4.15;1.20;;;;;;;19.99;48.13;101883.06;5015948;28;20052;-71
2022/02/08 07:26:08;;;;;;;4.30;1.30;;;;;;;19.79;48.40;101887.59;5015094;28;20034;-72
2022/02/08 07:28:39;;;;;;;5.55;1.38;;;;;;;19.64;48.96;101891.06;5014088;28;20026;-72
2022/02/08 07:31:14;;;;;;;4.80;1.58;;;;;;;20.05;47.35;101894.72;5015522;28;20026;-71
2022/02/08 07:33:44;;;;;;;6.53;2.67;;;;;;;20.17;47.22;101897.47;5016526;28;20030;-71
2022/02/08 07:36:30;;;;;;;9.65;2.90;;;;;;;20.03;47.61;101908.16;5015895;28;20030;-70
2022/02/08 07:38:56;;;;;;;9.82;3.50;;;;;;;20.02;47.57;101887.91;5014367;28;20030;-71
2022/02/08 07:41:41;;;;;;;9.73;3.38;;;;;;;20.05;47.49;101897.50;5015551;28;20032;-70
2022/02/08 07:44:09;;;;;;;12.02;3.88;;;;;;;20.15;47.11;101903.38;5015912;28;20681;-71
2022/02/08 07:46:35;;;;;;;8.57;3.33;;;;;;;20.20;46.90;101900.38;5015638;28;20097;-71
2022/02/08 07:49:04;;;;;;;7.65;2.85;;;;;;;20.24;46.86;101906.00;5017566;28;20090;-71
2022/02/08 07:51:32;;;;;;;9.32;3.25;;;;;;;20.06;47.00;101901.91;5017545;28;20026;-71
2022/02/08 07:53:59;;;;;;;7.88;3.15;;;;;;;19.98;47.42;101903.66;5015356;28;20073;-93
2022/02/08 07:56:25;;;;;;;8.20;2.67;;;;;;;20.15;46.95;101897.00;5014979;28;20018;-72
2022/02/08 07:58:50;;;;;;;6.07;2.20;;;;;;;20.08;47.24;101899.56;5013927;28;20116;-81
2022/02/08 08:01:16;;;;;;;9.27;2.08;;;;;;;20.07;47.14;101901.53;5013918;28;20173;-78
2022/02/08 08:03:42;;;;;;;8.05;2.05;;;;;;;20.13;46.96;101900.16;5015736;28;20108;-71
2022/02/08 08:06:14;;;;;;;8.38;2.38;;;;;;;20.10;47.03;101905.56;5030075;28;20030;-72
2022/02/08 08:08:40;;;;;;;8.65;2.83;;;;;;;20.01;47.20;101897.38;5034413;28;20079;-71
2022/02/08 08:11:13;;;;;;;10.82;3.17;;;;;;;20.02;47.18;101898.19;5034553;28;20026;-70
2022/02/08 08:13:46;;;;;;;10.60;2.83;;;;;;;19.89;47.70;101903.78;5034237;28;20384;-72
2022/02/08 08:16:19;;;;;;;5.78;1.40;;;;;;;19.90;47.50;101913.72;5033154;28;20026;-72
2022/02/08 08:18:58;;;;;;;5.20;1.25;;;;;;;19.99;47.21;101908.03;5031677;28;20025;-73
2022/02/08 08:21:24;;;;;;;7.90;2.38;;;;;;;19.95;47.42;101905.16;5024777;28;20040;-71
2022/02/08 08:23:50;;;;;;;6.80;1.52;;;;;;;19.92;47.43;101910.56;5021992;28;20041;-72
2022/02/08 08:26:16;;;;;;;3.15;0.80;;;;;;;20.00;47.17;101926.28;5032455;28;20030;-72
2022/02/08 08:28:42;;;;;;;5.63;1.10;;;;;;;19.98;47.28;101934.16;5032279;28;20494;-73
2022/02/08 08:31:07;;;;;;;3.05;0.63;;;;;;;19.97;47.34;101935.31;5032520;28;20021;-83
2022/02/08 08:33:33;;;;;;;5.78;1.55;;;;;;;19.97;47.13;101938.09;5032498;28;20166;-73
2022/02/08 08:35:58;;;;;;;1.67;0.93;;;;;;;20.12;46.80;101931.03;5032837;28;20025;-72
2022/02/08 08:38:26;;;;;;;4.70;1.08;;;;;;;20.10;46.93;101933.31;5032507;28;20597;-73
2022/02/08 08:41:01;;;;;;;1.80;0.60;;;;;;;20.16;46.90;101937.47;5032377;28;20029;-93
2022/02/08 08:49:10;;;;;;;7.60;1.00;;;;;;;20.16;46.81;101932.72;5033794;28;20059;-74
2022/02/08 08:53:59;;;;;;;36.60;26.05;;;;;;;20.35;46.33;101943.25;5022285;28;20038;-71
2022/02/08 08:56:25;;;;;;;30.50;17.48;;;;;;;20.35;46.65;101946.00;5022009;28;20034;-73
2022/02/08 08:58:51;;;;;;;3.20;1.23;;;;;;;20.36;46.45;101953.19;5022725;28;20024;-72
2022/02/08 09:01:16;;;;;;;7.15;1.40;;;;;;;20.44;46.19;101962.56;5024025;28;20021;-75
2022/02/08 09:03:43;;;;;;;1.45;0.60;;;;;;;20.40;46.43;101958.81;5013315;28;20030;-71
2022/02/08 09:06:10;;;;;;;0.90;0.63;;;;;;;20.40;46.26;101954.09;5020115;28;20026;-71
2022/02/08 09:08:39;;;;;;;3.80;0.68;;;;;;;20.28;46.46;101956.91;5039709;28;20038;-70
2022/02/08 09:11:15;;;;;;;3.47;1.98;;;;;;;20.36;46.23;101964.28;5031629;28;20034;-72
2022/02/08 09:14:00;;;;;;;10.85;1.70;;;;;;;20.26;46.51;101964.78;5032902;28;20036;-74
2022/02/08 09:16:35;;;;;;;4.00;1.60;;;;;;;20.31;46.15;101963.69;5032725;28;20022;-73
2022/02/08 09:19:34;;;;;;;4.63;1.15;;;;;;;20.35;45.99;101971.00;5024440;28;20049;-70
2022/02/08 09:22:29;;;;;;;9.77;2.60;;;;;;;20.29;46.19;101971.56;5013040;28;20038;-69
2022/02/08 09:25:12;;;;;;;2.72;1.00;;;;;;;20.34;45.93;101974.94;5013046;28;20591;-69
2022/02/08 09:30:33;;;;;;;10.15;2.25;;;;;;;20.37;45.72;101978.97;5012287;28;20716;-70
2022/02/08 09:32:59;;;;;;;2.38;1.27;;;;;;;20.29;45.99;101972.38;5013039;28;20041;-70
2022/02/08 09:35:24;;;;;;;10.88;9.98;;;;;;;20.20;46.07;101972.53;5012890;28;20396;-69
2022/02/08 09:37:50;;;;;;;4.07;1.40;;;;;;;20.26;45.93;101970.31;5012899;28;20026;-69
2022/02/08 09:40:19;;;;;;;3.55;1.08;;;;;;;20.18;46.12;101976.81;5012670;28;20048;-71
2022/02/08 09:42:46;;;;;;;45.67;41.80;;;;;;;20.11;46.37;101974.63;5012846;28;20029;-68
2022/02/08 09:45:18;;;;;;;6.25;1.60;;;;;;;20.08;46.33;101977.25;5012770;28;20057;-68
2022/02/08 09:47:52;;;;;;;11.70;7.22;;;;;;;20.11;46.24;101985.72;5012802;28;20022;-66
2022/02/08 09:50:22;;;;;;;11.32;5.18;;;;;;;20.16;46.10;101991.00;5011674;28;20030;-67
2022/02/08 09:52:52;;;;;;;;;;;;;;;20.06;46.46;101988.72;5011965;28;20038;-67
2022/02/08 09:55:19;;;;;;;7.63;6.88;;;;;;;20.21;46.17;101989.97;5011501;28;19917;-67
2022/02/08 09:57:45;;;;;;;4.63;2.13;;;;;;;20.20;46.20;101978.06;5011422;28;20030;-67
2022/02/08 10:00:12;;;;;;;3.40;2.08;;;;;;;19.90;46.78;101977.50;5011594;28;20118;-67
2022/02/08 10:02:38;;;;;;;3.45;2.20;;;;;;;20.15;46.24;101985.81;5011333;28;20068;-67
2022/02/08 10:05:08;;;;;;;5.07;3.45;;;;;;;20.29;46.13;101983.50;5011007;28;20022;-67
2022/02/08 10:07:35;;;;;;;1.63;1.50;;;;;;;20.35;45.98;101981.28;5010985;28;20029;-68
2022/02/08 10:10:05;;;;;;;6.10;4.20;;;;;;;20.35;45.83;101989.63;5009433;28;20033;-68
2022/02/08 10:21:38;;;;;;;6.18;2.05;;;;;;;20.17;46.69;101984.28;5012562;28;20037;-69
2022/02/08 10:23:36;;;;;;;3.38;2.17;;;;;;;20.31;46.51;101983.94;5012284;28;20496;-68
2022/02/08 10:26:19;;;;;;;1.00;0.40;;;;;;;20.47;46.30;101972.94;5012698;28;20044;-68
2022/02/08 10:28:58;;;;;;;5.88;2.08;;;;;;;20.61;46.08;101978.94;5012515;28;20042;-68
2022/02/08 10:31:58;;;;;;;0.73;0.50;;;;;;;20.51;46.32;101979.44;5012538;28;20026;-68
2022/02/08 10:40:13;;;;;;;1.38;1.25;;;;;;;20.30;46.59;101982.31;5012413;28;20037;-68
2022/02/08 10:42:42;;;;;;;0.98;0.77;;;;;;;20.32;46.48;101987.53;5014889;28;20473;-69
2022/02/08 10:45:22;;;;;;;0.40;0.40;;;;;;;20.10;46.72;101994.34;5014800;28;20108;-69
2022/02/08 10:47:59;;;;;;;1.30;0.70;;;;;;;20.42;46.08;101990.66;5015924;28;20029;-68
2022/02/08 10:50:29;;;;;;;2.05;0.40;;;;;;;20.17;46.56;101997.38;5016015;28;20034;-68
2022/02/08 10:52:57;;;;;;;3.47;1.70;;;;;;;20.07;46.74;102000.63;5015796;28;20476;-68
2022/02/08 10:58:09;;;;;;;1.08;0.40;;;;;;;20.44;45.90;101998.66;5015756;28;20026;-68
2022/02/08 11:03:16;;;;;;;1.45;1.35;;;;;;;20.43;45.88;102002.56;5016074;28;20030;-69
2022/02/08 11:05:58;;;;;;;5.80;2.15;;;;;;;20.42;45.95;101996.19;5015682;28;20131;-70
2022/02/08 11:16:08;;;;;;;1.45;0.50;;;;;;;20.26;46.02;102009.19;5015568;28;20029;-69
2022/02/08 11:18:57;;;;;;;2.00;0.60;;;;;;;20.35;45.70;102009.84;5015428;28;20038;-68
2022/02/08 11:24:05;;;;;;;2.58;0.73;;;;;;;20.56;45.12;102018.06;5015756;28;20492;-69
2022/02/08 11:26:43;;;;;;;1.98;0.70;;;;;;;20.56;45.07;102011.72;5015082;28;20045;-68
2022/02/08 11:29:09;;;;;;;1.20;0.55;;;;;;;20.21;45.70;102006.63;5015281;28;20030;-68
2022/02/08 11:31:40;;;;;;;4.97;1.27;;;;;;;20.61;44.85;102000.34;5015122;28;20491;-68
2022/02/08 11:39:06;;;;;;;1.10;1.00;;;;;;;20.55;44.98;102016.44;5015060;28;20041;-69
2022/02/08 11:40:17;;;;;;;1.55;0.63;;;;;;;19.75;46.38;101999.56;5015338;28;20044;-68
2022/02/08 11:53:31;;;;;;;1.08;0.80;;;;;;;20.37;45.15;102009.50;5014002;28;20068;-69
2022/02/08 11:58:37;;;;;;;3.15;1.23;;;;;;;20.55;44.76;101993.41;5014649;28;20014;-69
2022/02/08 12:01:15;;;;;;;2.60;1.23;;;;;;;20.41;45.18;102000.13;5013361;28;20511;-69
2022/02/08 12:08:55;;;;;;;4.38;1.35;;;;;;;20.42;44.12;102001.75;5014843;28;20026;-69
2022/02/08 12:31:02;;;;;;;2.35;1.63;;;;;;;20.98;43.65;101990.72;5014172;28;20030;-69
2022/02/08 12:55:02;;;;;;;1.45;0.85;;;;;;;21.06;43.64;101956.41;5013774;28;20125;-68
2022/02/08 12:57:50;;;;;;;3.65;1.23;;;;;;;21.15;43.65;101956.25;5012421;28;20030;-68
2022/02/08 13:03:37;;;;;;;6.72;1.73;;;;;;;21.16;43.57;101944.00;5013827;28;20034;-69
2022/02/08 13:15:44;;;;;;;5.78;1.55;;;;;;;21.36;43.35;101944.94;4997477;28;20424;-71
2022/02/08 14:20:04;;;;;;;2.70;1.85;;;;;;;22.18;43.07;101873.78;5024960;28;20037;-70
2022/02/08 14:22:52;;;;;;;5.78;4.82;;;;;;;22.17;43.16;101872.19;5024080;28;20088;-70
2022/02/08 14:30:44;;;;;;;8.63;7.25;;;;;;;22.21;43.02;101868.28;5025854;28;20043;-73
2022/02/08 14:33:32;;;;;;;13.18;11.60;;;;;;;22.37;42.65;101862.66;5024877;28;20025;-70
2022/02/08 14:36:18;;;;;;;16.77;14.73;;;;;;;22.16;43.12;101860.25;5025929;28;20053;-70
2022/02/08 15:09:17;;;;;;;19.58;18.27;;;;;;;22.02;42.85;101838.44;5024851;28;20034;-73
2022/02/08 15:12:28;;;;;;;4.82;4.43;;;;;;;22.05;42.90;101832.13;5023841;28;20522;-74
2022/02/08 15:14:37;;;;;;;10.32;9.52;;;;;;;21.95;43.05;101821.59;5022121;28;20084;-74
2022/02/08 15:17:06;;;;;;;9.63;8.85;;;;;;;22.06;42.85;101817.03;5025415;28;20049;-74
2022/02/08 15:19:33;;;;;;;5.60;5.15;;;;;;;22.00;42.86;101829.66;5033097;28;20029;-72
2022/02/08 15:22:00;;;;;;;1.48;0.80;;;;;;;21.99;42.89;101830.00;5033606;28;20021;-72
2022/02/08 15:24:26;;;;;;;4.15;3.00;;;;;;;21.95;42.99;101815.22;5034012;28;20026;-72
2022/02/08 15:26:53;;;;;;;3.30;2.17;;;;;;;21.98;42.82;101823.63;5034532;28;20041;-73
2022/02/08 15:29:19;;;;;;;1.52;1.15;;;;;;;21.87;43.07;101822.59;5033774;28;20045;-73
2022/02/08 15:31:44;;;;;;;3.20;2.40;;;;;;;21.94;42.77;101821.94;5035004;28;20468;-72
2022/02/08 15:34:11;;;;;;;2.00;1.23;;;;;;;21.78;43.14;101817.25;5033948;28;20468;-73
2022/02/08 15:36:38;;;;;;;2.55;2.22;;;;;;;21.81;42.97;101818.47;5033048;28;20383;-73
2022/02/08 15:39:08;;;;;;;1.40;1.20;;;;;;;21.78;42.93;101813.66;5034299;28;20163;-74
2022/02/08 15:41:40;;;;;;;2.83;1.23;;;;;;;21.69;43.04;101807.47;5032666;28;20125;-73
2022/02/08 15:44:14;;;;;;;1.95;1.05;;;;;;;21.66;43.02;101802.66;5034227;28;20036;-73
2022/02/08 15:46:40;;;;;;;3.17;2.08;;;;;;;21.67;43.26;101805.06;5034436;28;20025;-71
2022/02/08 15:49:06;;;;;;;2.08;1.10;;;;;;;21.64;43.02;101793.88;5033640;28;20026;-72
2022/02/08 15:51:35;;;;;;;2.53;1.73;;;;;;;21.65;43.06;101798.25;5032705;28;20080;-73
2022/02/08 15:56:54;;;;;;;0.75;0.60;;;;;;;21.54;43.26;101787.72;5033096;28;20026;-73
2022/02/08 16:07:38;;;;;;;1.98;0.93;;;;;;;21.56;43.03;101795.69;5034602;28;20404;-69
2022/02/08 16:10:15;;;;;;;1.13;0.73;;;;;;;21.63;42.82;101787.50;5034325;28;20028;-71
2022/02/08 16:18:05;;;;;;;3.08;1.00;;;;;;;21.52;43.27;101780.88;5027833;28;20030;-74
2022/02/08 16:20:58;;;;;;;3.28;1.10;;;;;;;21.65;42.82;101784.34;5023951;28;20053;-75
2022/02/08 16:50:59;;;;;;;3.25;1.25;;;;;;;21.13;43.43;101775.16;5026187;28;20083;-75
2022/02/08 16:55:50;;;;;;;2.63;1.13;;;;;;;21.24;43.58;101778.22;5033517;28;20395;-70
2022/02/08 16:58:34;;;;;;;1.48;0.90;;;;;;;21.22;43.41;101783.31;5033342;28;20026;-69
2022/02/08 17:01:09;;;;;;;0.88;0.82;;;;;;;21.12;43.62;101773.56;5033473;28;20440;-69
2022/02/08 17:03:40;;;;;;;1.92;1.00;;;;;;;21.09;43.74;101785.41;5033390;28;20391;-74
2022/02/08 17:06:06;;;;;;;1.52;1.10;;;;;;;21.18;43.62;101783.25;5033324;28;20021;-73
2022/02/08 17:08:31;;;;;;;0.80;0.75;;;;;;;21.00;43.84;101779.19;5033185;28;20030;-71
2022/02/08 17:10:59;;;;;;;1.00;0.90;;;;;;;20.98;43.96;101779.56;5033194;28;20040;-71
2022/02/08 17:13:45;;;;;;;1.33;1.10;;;;;;;20.98;44.07;101771.22;5033227;28;20450;-69
2022/02/08 17:16:24;;;;;;;2.28;1.10;;;;;;;20.89;44.18;101776.16;5032955;28;20034;-73
2022/02/08 17:36:11;;;;;;;5.05;3.08;;;;;;;21.00;43.74;101787.53;5028677;28;20049;-81
2022/02/08 17:45:58;;;;;;;2.45;1.90;;;;;;;20.72;44.00;101790.41;5021378;28;20045;-79
2022/02/08 17:48:24;;;;;;;3.28;2.28;;;;;;;20.77;43.63;101785.38;5021345;28;20072;-84
2022/02/08 17:50:50;;;;;;;6.70;6.05;;;;;;;20.77;43.86;101777.03;5019469;28;20476;-77
2022/02/08 17:53:18;;;;;;;4.30;2.25;;;;;;;20.68;43.86;101795.84;5023347;28;20022;-84
2022/02/08 17:55:44;;;;;;;7.60;3.83;;;;;;;20.65;43.54;101787.44;5018307;28;20034;-74
2022/02/08 17:58:09;;;;;;;3.25;2.38;;;;;;;20.58;43.74;101778.94;5014171;28;20032;-80
2022/02/08 18:00:36;;;;;;;4.75;2.80;;;;;;;20.62;43.67;101785.38;5011752;28;20040;-84
2022/02/08 18:03:04;;;;;;;3.97;2.58;;;;;;;20.63;43.61;101789.75;5010392;28;20113;-83
2022/02/08 18:05:29;;;;;;;3.22;2.92;;;;;;;20.58;43.44;101801.94;5010862;28;20036;-83
2022/02/08 18:07:56;;;;;;;4.07;3.63;;;;;;;20.61;43.56;101801.22;5011202;28;20423;-83